createdAt,value
2023-05-19T00:02:44.134Z,101178.28
2023-05-19T00:07:45.870Z,101177.91
2023-05-19T00:12:45.328Z,101179.00
2023-05-19T00:17:44.236Z,101173.25
2023-05-19T00:22:45.161Z,101166.94
2023-05-19T00:27:44.301Z,101170.03
2023-05-19T00:32:47.703Z,101164.88
2023-05-19T00:37:47.023Z,101160.59
2023-05-19T00:42:45.988Z,101162.31
2023-05-19T00:47:44.886Z,101160.13
2023-05-19T00:52:44.124Z,101166.84
2023-05-19T00:57:44.458Z,101166.69
2023-05-19T01:02:43.718Z,101163.47
2023-05-19T01:07:43.291Z,101172.69
2023-05-19T01:12:42.291Z,101167.41
2023-05-19T01:17:51.737Z,101163.84
2023-05-19T01:22:56.776Z,101163.28
2023-05-19T01:28:22.888Z,101156.91
2023-05-19T01:33:23.395Z,101155.13
2023-05-19T01:38:23.523Z,101152.03
2023-05-19T01:43:26.030Z,101166.47
2023-05-19T01:48:25.318Z,101168.44
2023-05-19T01:53:27.331Z,101169.34
2023-05-19T01:58:45.542Z,101162.84
2023-05-19T02:04:21.516Z,101162.84
2023-05-19T02:09:25.506Z,101158.88
2023-05-19T02:14:45.727Z,101156.84
2023-05-19T02:19:44.852Z,101151.34
2023-05-19T02:24:46.600Z,101160.38
2023-05-19T02:29:45.412Z,101159.78
2023-05-19T02:34:45.673Z,101152.75
2023-05-19T02:39:45.183Z,101156.50
2023-05-19T02:44:44.567Z,101156.06
2023-05-19T02:49:45.127Z,101160.22
2023-05-19T02:54:44.164Z,101153.19
2023-05-19T02:59:43.213Z,101149.63
2023-05-19T03:04:43.045Z,101138.59
2023-05-19T03:09:41.918Z,101138.63
2023-05-19T03:14:41.197Z,101138.66
2023-05-19T03:19:40.185Z,101134.03
2023-05-19T03:24:39.606Z,101140.69
2023-05-19T03:29:39.572Z,101150.28
2023-05-19T03:34:38.370Z,101142.03
2023-05-19T03:39:37.787Z,101145.25
2023-05-19T03:44:36.704Z,101145.69
2023-05-19T03:49:35.875Z,101156.47
2023-05-19T03:54:53.749Z,101160.16
2023-05-19T03:59:53.058Z,101154.94
2023-05-19T04:04:52.588Z,101148.09
2023-05-19T04:09:51.695Z,101150.94
2023-05-19T04:14:50.597Z,101148.25
2023-05-19T04:19:49.404Z,101158.72
2023-05-19T04:24:48.961Z,101149.50
2023-05-19T04:29:48.451Z,101143.91
2023-05-19T04:34:48.008Z,101141.72
2023-05-19T04:39:54.258Z,101141.47
2023-05-19T04:44:56.812Z,101144.69
2023-05-19T04:50:00.853Z,101140.25
2023-05-19T04:54:59.852Z,101133.25
2023-05-19T05:00:00.427Z,101144.38
2023-05-19T05:05:09.507Z,101140.75
2023-05-19T05:10:09.314Z,101144.63
2023-05-19T05:15:09.187Z,101150.47
2023-05-19T05:20:09.886Z,101142.59
2023-05-19T05:25:09.607Z,101142.25
2023-05-19T05:30:09.558Z,101145.22
2023-05-19T05:35:10.141Z,101145.22
2023-05-19T05:40:12.892Z,101144.28
2023-05-19T05:45:12.530Z,101146.66
2023-05-19T05:50:13.587Z,101149.38
2023-05-19T05:55:14.043Z,101153.59
2023-05-19T06:00:16.270Z,101157.50
2023-05-19T06:05:15.369Z,101160.78
2023-05-19T06:10:15.171Z,101156.78
2023-05-19T06:15:14.329Z,101156.78
2023-05-19T06:20:39.554Z,101158.19
2023-05-19T06:25:38.761Z,101155.22
2023-05-19T06:30:37.855Z,101158.69
2023-05-19T06:35:55.515Z,101147.44
2023-05-19T06:40:54.666Z,101146.78
2023-05-19T06:45:53.545Z,101143.44
2023-05-19T06:50:54.097Z,101134.50
2023-05-19T06:55:59.504Z,101135.34
2023-05-19T07:01:00.949Z,101136.22
2023-05-19T07:06:08.127Z,101134.44
2023-05-19T07:11:08.087Z,101136.13
2023-05-19T07:16:07.151Z,101123.13
2023-05-19T07:21:07.354Z,101124.47
2023-05-19T07:26:06.957Z,101121.88
2023-05-19T07:31:05.950Z,101124.81
2023-05-19T07:36:04.902Z,101128.25
2023-05-19T07:41:05.778Z,101120.84
2023-05-19T07:46:06.090Z,101129.72
2023-05-19T07:51:05.324Z,101114.25
2023-05-19T07:56:04.776Z,101108.00
2023-05-19T08:01:03.680Z,101108.47
2023-05-19T08:06:02.981Z,101105.84
2023-05-19T08:11:04.314Z,101108.78
2023-05-19T08:16:03.284Z,101106.25
2023-05-19T08:21:02.179Z,101105.72
2023-05-19T08:26:02.344Z,101106.66
2023-05-19T08:31:01.588Z,101109.84
2023-05-19T08:36:00.987Z,101104.22
2023-05-19T08:41:00.180Z,101092.03
2023-05-19T08:46:00.770Z,101088.69
2023-05-19T08:51:25.082Z,101088.66
2023-05-19T08:56:25.335Z,101090.59
2023-05-19T09:01:24.587Z,101092.94
2023-05-19T09:06:24.079Z,101082.19
2023-05-19T09:11:23.391Z,101089.31
2023-05-19T09:16:27.653Z,101083.06
2023-05-19T09:21:31.366Z,101079.47
2023-05-19T09:26:41.169Z,101072.91
2023-05-19T09:31:40.116Z,101073.72
2023-05-19T09:36:42.422Z,101074.94
2023-05-19T09:41:41.894Z,101076.56
2023-05-19T09:46:48.275Z,101060.56
2023-05-19T09:51:49.625Z,101055.34
2023-05-19T09:56:58.625Z,101054.03
2023-05-19T10:01:59.450Z,101051.03
2023-05-19T10:06:59.825Z,101037.88
2023-05-19T10:11:59.425Z,101035.59
2023-05-19T10:16:59.446Z,101039.16
2023-05-19T10:21:58.406Z,101041.66
2023-05-19T10:27:02.483Z,101029.34
2023-05-19T10:32:08.346Z,101026.94
2023-05-19T10:37:10.253Z,101037.81
2023-05-19T10:42:44.635Z,101020.06
2023-05-19T10:47:44.506Z,101020.88
2023-05-19T10:52:44.727Z,101025.25
2023-05-19T10:58:00.500Z,101024.72
2023-05-19T11:03:16.533Z,101016.97
2023-05-19T11:08:17.487Z,101018.59
2023-05-19T11:13:23.478Z,101018.59
2023-05-19T11:18:22.469Z,101005.16
2023-05-19T11:23:21.849Z,101021.06
2023-05-19T11:28:29.607Z,101010.38
2023-05-19T11:33:28.685Z,101011.56
2023-05-19T11:38:30.186Z,101009.25
2023-05-19T11:43:29.370Z,101006.47
2023-05-19T11:48:30.123Z,101014.56
2023-05-19T11:53:33.276Z,100999.16
2023-05-19T11:58:33.652Z,101009.81
2023-05-19T12:03:33.183Z,101012.81
2023-05-19T12:08:32.323Z,101010.63
2023-05-19T12:13:31.260Z,101012.75
2023-05-19T12:18:32.114Z,101006.81
2023-05-19T12:23:32.303Z,101005.53
2023-05-19T12:28:31.368Z,101003.69
2023-05-19T12:33:33.659Z,101002.81
2023-05-19T12:38:37.410Z,101001.56
2023-05-19T12:43:38.218Z,101012.09
2023-05-19T12:48:41.851Z,100995.63
2023-05-19T12:53:42.535Z,100994.44
2023-05-19T12:58:42.148Z,100988.47
2023-05-19T13:03:44.146Z,100989.84
2023-05-19T13:08:43.054Z,100997.03
2023-05-19T13:13:42.034Z,100992.38
2023-05-19T13:18:40.985Z,100989.91
2023-05-19T13:23:39.896Z,100996.78
2023-05-19T13:28:38.889Z,100995.38
2023-05-19T13:33:37.760Z,100986.88
2023-05-19T13:38:36.569Z,100977.06
2023-05-19T13:43:35.582Z,100986.19
2023-05-19T13:48:34.567Z,100983.44
2023-05-19T13:53:34.659Z,100993.94
2023-05-19T13:58:33.714Z,100981.31
2023-05-19T14:03:32.544Z,100981.16
2023-05-19T14:08:32.447Z,100970.59
2023-05-19T14:13:34.455Z,100971.22
2023-05-19T14:18:36.171Z,100990.28
2023-05-19T14:23:35.053Z,100993.19
2023-05-19T14:28:33.967Z,100990.75
2023-05-19T14:33:35.263Z,100983.59
2023-05-19T14:38:34.696Z,100980.38
2023-05-19T14:43:33.925Z,100991.00
2023-05-19T14:48:32.826Z,100980.06
2023-05-19T14:53:31.737Z,100978.69
2023-05-19T14:58:30.657Z,100988.53
2023-05-19T15:03:29.681Z,100990.72
2023-05-19T15:08:28.664Z,101004.47
2023-05-19T15:13:27.719Z,100988.56
2023-05-19T15:18:26.673Z,100998.44
2023-05-19T15:23:25.613Z,100996.22
2023-05-19T15:28:24.680Z,101003.03
2023-05-19T15:33:23.587Z,101004.38
2023-05-19T15:38:22.521Z,101003.31
2023-05-19T15:43:21.902Z,101007.41
2023-05-19T15:48:20.879Z,101002.72
2023-05-19T15:53:20.292Z,101012.31
2023-05-19T15:58:19.158Z,101015.84
2023-05-19T16:03:18.139Z,101020.91
2023-05-19T16:08:17.090Z,101026.38
2023-05-19T16:13:15.924Z,101025.44
2023-05-19T16:18:15.959Z,101029.91
2023-05-19T16:23:14.833Z,101028.81
2023-05-19T16:28:14.670Z,101021.69
2023-05-19T16:33:13.548Z,101031.03
2023-05-19T16:38:12.385Z,101036.34
2023-05-19T16:43:11.387Z,101037.72
2023-05-19T16:48:10.468Z,101039.56
2023-05-19T16:53:09.495Z,101040.13
2023-05-19T16:58:08.399Z,101037.84
2023-05-19T17:03:07.379Z,101040.94
2023-05-19T17:08:06.480Z,101031.78
2023-05-19T17:13:05.872Z,101030.31
2023-05-19T17:18:05.846Z,101026.31
2023-05-19T17:23:04.790Z,101030.59
2023-05-19T17:28:03.869Z,101030.97
2023-05-19T17:33:03.800Z,101027.56
2023-05-19T17:38:02.764Z,101037.28
2023-05-19T17:43:01.599Z,101041.72
2023-05-19T17:48:00.494Z,101048.72
2023-05-19T17:52:59.687Z,101043.97
2023-05-19T17:57:58.820Z,101049.09
2023-05-19T18:02:59.212Z,101033.41
2023-05-19T18:07:58.392Z,101036.53
2023-05-19T18:12:57.526Z,101033.31
2023-05-19T18:17:56.503Z,101033.53
2023-05-19T18:22:55.580Z,101034.06
2023-05-19T18:27:55.941Z,101040.53
2023-05-19T18:32:54.739Z,101045.66
2023-05-19T18:37:56.533Z,101045.81
2023-05-19T18:42:55.396Z,101039.69
2023-05-19T18:47:54.551Z,101035.16
2023-05-19T18:52:53.682Z,101036.84
2023-05-19T18:57:54.147Z,101050.53
2023-05-19T19:02:53.033Z,101055.78
2023-05-19T19:07:52.480Z,101062.03
2023-05-19T19:12:51.361Z,101056.91
2023-05-19T19:17:50.192Z,101056.75
2023-05-19T19:22:48.970Z,101055.41
2023-05-19T19:27:47.858Z,101054.19
2023-05-19T19:32:46.762Z,101051.84
2023-05-19T19:37:47.132Z,101054.44
2023-05-19T19:42:46.158Z,101053.31
2023-05-19T19:47:45.097Z,101054.81
2023-05-19T19:52:43.995Z,101057.25
2023-05-19T19:57:45.014Z,101054.44
2023-05-19T20:03:02.930Z,101052.41
2023-05-19T20:08:02.904Z,101052.03
2023-05-19T20:13:02.232Z,101049.88
2023-05-19T20:18:01.199Z,101061.84
2023-05-19T20:23:07.654Z,101056.16
2023-05-19T20:28:06.611Z,101060.25
2023-05-19T20:33:05.571Z,101062.16
2023-05-19T20:38:04.938Z,101068.91
2023-05-19T20:43:03.860Z,101064.34
2023-05-19T20:48:03.890Z,101067.91
2023-05-19T20:53:03.043Z,101060.81
2023-05-19T20:58:02.056Z,101063.22
2023-05-19T21:03:01.488Z,101064.88
2023-05-19T21:08:00.692Z,101055.22
2023-05-19T21:12:59.548Z,101049.63
2023-05-19T21:17:58.576Z,101058.75
2023-05-19T21:22:57.611Z,101046.53
2023-05-19T21:27:57.935Z,101057.19
2023-05-19T21:32:57.344Z,101058.75
2023-05-19T21:37:56.570Z,101065.84
2023-05-19T21:42:55.455Z,101063.72
2023-05-19T21:47:54.320Z,101062.56
2023-05-19T21:52:53.135Z,101058.22
2023-05-19T21:57:52.248Z,101052.34
2023-05-19T22:02:51.598Z,101052.09
2023-05-19T22:07:50.592Z,101053.59
2023-05-19T22:12:49.594Z,101048.22
2023-05-19T22:17:48.511Z,101054.75
2023-05-19T22:22:47.400Z,101055.13
2023-05-19T22:27:46.330Z,101055.97
2023-05-19T22:32:45.465Z,101051.59
2023-05-19T22:37:44.996Z,101039.94
2023-05-19T22:42:44.106Z,101047.47
2023-05-19T22:47:43.023Z,101044.59
2023-05-19T22:52:41.833Z,101043.19
2023-05-19T22:57:40.692Z,101042.25
2023-05-19T23:02:41.613Z,101034.19
2023-05-19T23:07:40.729Z,101026.78
2023-05-19T23:12:40.141Z,101023.34
2023-05-19T23:17:39.120Z,101036.91
2023-05-19T23:22:37.960Z,101040.03
2023-05-19T23:27:43.402Z,101043.56
2023-05-19T23:32:44.441Z,101042.09
2023-05-19T23:37:43.600Z,101045.06
2023-05-19T23:42:44.326Z,101043.91
2023-05-19T23:47:43.181Z,101036.69
2023-05-19T23:52:42.054Z,101037.03
2023-05-19T23:57:41.807Z,101047.69
